Terminal Aerodrome Forecast
Issued by NWS Des Moines, IA

Home | Current Version | Previous Version | Text Only | Print | Product List | Glossary On
Versions: 1 2 3 4 5 6 7 8 9 10 11 12 13 14 15 16 17 18 19 20 21 22 23 24 25 26 27 28 29 30 31 32
000
FTUS43 KDMX 281738
TAFDSM
TAF
KDSM 281738Z 2818/2918 14015KT P6SM VCSH SCT014 BKN060 OVC100
     FM281900 17009KT P6SM BKN021
     FM290500 08010KT P6SM SCT011 BKN020
     FM290800 VRB04KT 3SM BR OVC009
     FM291300 01005KT P6SM SCT010 BKN021=

USA.gov is the U.S. government's official web portal to all federal, state and local government web resources and services.